Time;durP1;ratioP1;P1;durP2;ratioP2;P2;SDS_P1;SDS_P2;PMS_P1;PMS_P2;Temp;Humidity;BMP_temperature;BMP_pressure;BME280_temperature;BME280_humidity;BME280_pressure;Samples;Min_cycle;Max_cycle;Signal;HPM_P1;HPM_P2
2021/03/10 00:00:22;;;;;;;25.50;16.23;;;6.80;77.00;;;;;;6153564;28;20637;-77
2021/03/10 00:03:23;;;;;;;27.00;18.20;;;6.80;76.90;;;;;;6154135;28;20051;-78
2021/03/10 00:06:26;;;;;;;27.88;17.98;;;6.80;77.10;;;;;;6154091;28;20481;-78
2021/03/10 00:09:27;;;;;;;24.38;15.88;;;6.70;77.20;;;;;;6153787;28;20457;-78
2021/03/10 00:12:28;;;;;;;35.92;18.73;;;6.70;77.30;;;;;;6153319;28;20130;-78
2021/03/10 00:15:30;;;;;;;24.77;17.33;;;6.70;77.30;;;;;;6153762;28;20119;-77
2021/03/10 00:18:31;;;;;;;32.15;20.95;;;6.70;77.30;;;;;;6153998;28;20111;-77
2021/03/10 00:21:33;;;;;;;26.33;17.40;;;6.70;77.70;;;;;;6153727;28;20173;-78
2021/03/10 00:24:35;;;;;;;26.35;16.90;;;6.70;77.60;;;;;;6153596;28;20474;-78
2021/03/10 00:27:36;;;;;;;27.58;18.50;;;6.70;77.50;;;;;;6153574;28;20055;-77
2021/03/10 00:30:38;;;;;;;28.85;17.30;;;6.70;77.60;;;;;;6153918;28;20512;-78
2021/03/10 00:33:39;;;;;;;26.55;17.67;;;6.70;77.70;;;;;;6153444;28;20058;-78
2021/03/10 00:36:41;;;;;;;28.55;18.73;;;6.70;77.80;;;;;;6153667;28;20047;-77
2021/03/10 00:39:44;;;;;;;32.83;19.02;;;6.70;77.90;;;;;;6151526;28;20079;-76
2021/03/10 00:42:45;;;;;;;34.15;20.63;;;6.70;77.90;;;;;;6151225;28;20137;-77
2021/03/10 00:45:47;;;;;;;29.33;18.08;;;6.70;77.90;;;;;;6150412;28;20055;-77
2021/03/10 00:48:48;;;;;;;27.27;20.08;;;6.70;78.00;;;;;;6150909;28;20050;-76
2021/03/10 00:51:50;;;;;;;34.63;21.08;;;6.70;78.20;;;;;;6151161;28;20091;-77
2021/03/10 00:54:51;;;;;;;33.33;18.90;;;6.70;78.50;;;;;;6151523;28;20497;-77
2021/03/10 00:57:53;;;;;;;27.55;17.92;;;6.70;78.30;;;;;;6150901;28;20102;-77
2021/03/10 01:00:54;;;;;;;28.52;19.00;;;6.60;78.20;;;;;;6150944;28;20486;-77
2021/03/10 01:03:55;;;;;;;29.45;20.70;;;6.60;78.40;;;;;;6151007;28;20560;-77
2021/03/10 01:06:57;;;;;;;29.42;19.10;;;6.60;78.40;;;;;;6152500;28;20178;-78
2021/03/10 01:09:59;;;;;;;33.20;22.70;;;6.70;78.40;;;;;;6166968;28;20053;-78
2021/03/10 01:13:00;;;;;;;29.67;19.63;;;6.70;78.20;;;;;;6175939;28;20050;-77
2021/03/10 01:16:01;;;;;;;25.33;19.08;;;6.60;78.20;;;;;;6171195;28;20179;-78
2021/03/10 01:19:04;;;;;;;29.67;20.05;;;6.70;78.10;;;;;;6152983;29;20504;-78
2021/03/10 01:22:06;;;;;;;35.63;21.45;;;6.70;78.60;;;;;;6153333;28;20126;-77
2021/03/10 01:25:09;;;;;;;30.98;20.00;;;6.70;78.00;;;;;;6153066;28;20046;-77
2021/03/10 01:28:10;;;;;;;28.92;18.80;;;6.60;78.00;;;;;;6159828;28;20123;-76
2021/03/10 01:31:12;;;;;;;30.25;20.52;;;6.60;78.30;;;;;;6178146;28;20142;-78
2021/03/10 01:34:13;;;;;;;31.23;21.65;;;6.60;78.50;;;;;;6176496;28;20039;-78
2021/03/10 01:37:16;;;;;;;30.92;20.63;;;6.50;78.70;;;;;;6161637;28;20043;-77
2021/03/10 01:40:19;;;;;;;31.58;21.33;;;6.60;78.90;;;;;;6153269;28;20055;-78
2021/03/10 01:43:20;;;;;;;35.80;22.02;;;6.50;78.90;;;;;;6153043;28;20047;-78
2021/03/10 01:46:22;;;;;;;35.55;23.42;;;6.60;79.00;;;;;;6153388;29;20055;-78
2021/03/10 01:49:23;;;;;;;33.00;21.40;;;6.60;79.00;;;;;;6168689;28;20047;-79
2021/03/10 01:52:25;;;;;;;32.92;23.30;;;6.60;79.10;;;;;;6175639;28;20043;-78
2021/03/10 01:55:27;;;;;;;29.90;20.88;;;6.50;79.20;;;;;;6174334;28;20427;-78
2021/03/10 01:58:28;;;;;;;31.38;19.50;;;6.60;79.70;;;;;;6152815;29;20138;-78
2021/03/10 02:01:30;;;;;;;36.80;22.17;;;6.60;79.20;;;;;;6151314;28;20077;-78
2021/03/10 02:04:31;;;;;;;33.72;21.55;;;6.60;79.20;;;;;;6155184;28;20047;-77
2021/03/10 02:07:39;;;;;;;31.13;20.55;;;6.60;79.60;;;;;;6153566;28;20157;-78
2021/03/10 02:10:47;;;;;;;34.83;22.23;;;6.50;79.00;;;;;;6176379;28;20054;-77
2021/03/10 02:13:59;;;;;;;32.63;20.50;;;6.50;79.00;;;;;;6175381;28;20132;-77
2021/03/10 02:17:06;;;;;;;33.92;22.20;;;6.40;79.20;;;;;;6161899;28;20416;-77
2021/03/10 02:20:28;;;;;;;34.58;22.42;;;6.40;79.50;;;;;;6151398;28;20050;-77
2021/03/10 02:23:45;;;;;;;33.88;21.67;;;6.30;79.70;;;;;;6152879;28;20397;-77
2021/03/10 02:27:31;;;;;;;34.72;22.05;;;6.20;80.30;;;;;;6175346;28;20452;-77
2021/03/10 02:30:36;;;;;;;36.80;22.75;;;6.10;80.60;;;;;;6176252;28;20051;-77
2021/03/10 02:33:39;;;;;;;37.72;21.25;;;6.00;81.00;;;;;;6174910;28;20178;-78
2021/03/10 02:36:41;;;;;;;34.38;21.67;;;6.10;81.10;;;;;;6178350;28;20505;-77
2021/03/10 02:39:43;;;;;;;34.13;21.60;;;6.10;81.00;;;;;;6179941;28;20043;-77
2021/03/10 02:42:46;;;;;;;27.98;19.38;;;6.10;81.00;;;;;;6205900;28;20127;-78
2021/03/10 02:45:50;;;;;;;29.60;21.10;;;6.10;80.90;;;;;;6181242;28;20063;-77
2021/03/10 02:48:52;;;;;;;30.20;20.02;;;6.20;80.90;;;;;;6153647;28;20061;-77
2021/03/10 02:51:55;;;;;;;33.53;21.05;;;6.10;80.70;;;;;;6153224;28;20502;-77
2021/03/10 02:54:57;;;;;;;37.20;21.25;;;6.20;80.80;;;;;;6154029;29;20051;-77
2021/03/10 02:57:58;;;;;;;34.75;20.98;;;6.20;80.90;;;;;;6152742;28;20054;-77
2021/03/10 03:01:00;;;;;;;32.20;20.90;;;6.20;81.00;;;;;;6153442;28;20142;-77
2021/03/10 03:04:02;;;;;;;30.60;20.63;;;6.20;81.00;;;;;;6158334;28;20077;-77
2021/03/10 03:07:04;;;;;;;31.58;20.08;;;6.20;81.10;;;;;;6176906;28;20509;-77
2021/03/10 03:10:07;;;;;;;31.20;20.35;;;6.20;81.20;;;;;;6176780;28;20057;-77
2021/03/10 03:13:10;;;;;;;29.88;21.95;;;6.20;81.30;;;;;;6162107;28;20043;-77
2021/03/10 03:16:14;;;;;;;32.08;20.27;;;6.20;81.30;;;;;;6153002;28;20133;-77
2021/03/10 03:19:15;;;;;;;30.20;20.20;;;6.10;81.30;;;;;;6153435;29;20098;-77
2021/03/10 03:22:17;;;;;;;33.90;21.50;;;6.10;81.50;;;;;;6152395;28;20130;-77
2021/03/10 03:25:19;;;;;;;28.05;19.58;;;6.10;81.60;;;;;;6152631;28;20075;-77
2021/03/10 03:28:24;;;;;;;29.10;20.33;;;6.10;81.90;;;;;;6160876;28;20572;-77
2021/03/10 03:31:30;;;;;;;32.05;20.27;;;6.10;82.10;;;;;;6176933;28;20051;-78
2021/03/10 03:34:33;;;;;;;37.22;23.02;;;6.10;82.30;;;;;;6177127;28;20052;-77
2021/03/10 03:37:35;;;;;;;31.25;23.65;;;6.10;82.40;;;;;;6159044;28;20053;-77
2021/03/10 03:40:37;;;;;;;31.60;20.77;;;6.10;82.40;;;;;;6152646;28;20039;-78
2021/03/10 03:43:38;;;;;;;28.67;20.02;;;6.00;82.40;;;;;;6154942;28;20553;-77
2021/03/10 03:46:41;;;;;;;29.98;18.50;;;6.00;82.60;;;;;;6176131;28;20078;-77
2021/03/10 03:49:42;;;;;;;35.00;24.48;;;6.00;82.70;;;;;;6176747;28;20504;-78
2021/03/10 03:52:45;;;;;;;39.95;23.45;;;5.90;82.80;;;;;;6176733;28;20042;-77
2021/03/10 03:55:47;;;;;;;33.05;21.20;;;5.90;83.00;;;;;;6172879;28;20502;-77
2021/03/10 03:58:48;;;;;;;32.17;23.75;;;6.00;83.10;;;;;;6152952;29;20147;-78
2021/03/10 04:01:51;;;;;;;37.25;24.30;;;5.90;83.10;;;;;;6152804;28;20090;-77
2021/03/10 04:04:52;;;;;;;45.78;24.63;;;5.90;83.30;;;;;;6153070;28;20066;-77
2021/03/10 04:07:55;;;;;;;39.33;24.60;;;5.90;83.30;;;;;;6157419;28;20067;-78
2021/03/10 04:10:56;;;;;;;38.17;26.08;;;5.90;83.50;;;;;;6176452;28;20531;-77
2021/03/10 04:13:58;;;;;;;38.88;26.00;;;5.90;83.70;;;;;;6155322;28;20066;-77
2021/03/10 04:17:00;;;;;;;40.47;25.95;;;5.90;83.70;;;;;;6152967;28;20070;-77
2021/03/10 04:20:02;;;;;;;37.72;25.92;;;5.90;83.80;;;;;;6152020;28;20047;-77
2021/03/10 04:23:03;;;;;;;39.95;25.58;;;5.90;83.90;;;;;;6152717;29;20134;-77
2021/03/10 04:26:04;;;;;;;39.45;24.90;;;5.90;84.00;;;;;;6152091;28;20048;-77
2021/03/10 04:29:06;;;;;;;33.47;23.63;;;5.90;84.20;;;;;;6151964;28;20071;-77
2021/03/10 04:32:08;;;;;;;36.38;26.13;;;5.90;84.20;;;;;;6158672;28;20043;-77
2021/03/10 04:35:11;;;;;;;32.17;20.70;;;5.90;84.20;;;;;;6176642;28;20050;-77
2021/03/10 04:38:12;;;;;;;36.50;22.83;;;5.90;84.30;;;;;;6176432;28;20058;-77
2021/03/10 04:41:13;;;;;;;34.95;23.15;;;5.90;84.40;;;;;;6161767;28;20105;-77
2021/03/10 04:44:15;;;;;;;32.45;21.73;;;5.80;84.40;;;;;;6152126;28;20051;-78
2021/03/10 04:47:17;;;;;;;35.17;21.80;;;5.80;84.60;;;;;;6152453;29;20510;-77
2021/03/10 04:50:18;;;;;;;36.10;24.55;;;5.80;84.80;;;;;;6152237;28;20621;-77
2021/03/10 04:53:20;;;;;;;37.00;25.70;;;5.80;84.90;;;;;;6152492;28;20047;-78
2021/03/10 04:56:21;;;;;;;37.83;24.25;;;5.80;85.00;;;;;;6160564;28;20043;-77
2021/03/10 04:59:22;;;;;;;33.30;21.35;;;5.80;85.20;;;;;;6176162;28;20070;-77
2021/03/10 05:02:24;;;;;;;34.85;26.92;;;5.80;85.30;;;;;;6176633;28;20047;-77
2021/03/10 05:05:26;;;;;;;45.88;28.33;;;5.80;85.50;;;;;;6159976;28;20047;-78
2021/03/10 05:08:27;;;;;;;41.03;24.88;;;5.80;86.80;;;;;;6151935;28;20077;-77
2021/03/10 05:11:28;;;;;;;40.78;27.60;;;5.90;85.90;;;;;;6153364;28;20536;-77
2021/03/10 05:14:30;;;;;;;52.25;28.20;;;5.90;85.80;;;;;;6176139;28;20495;-77
2021/03/10 05:17:32;;;;;;;35.60;25.05;;;5.90;85.70;;;;;;6158182;28;20487;-77
2021/03/10 05:20:34;;;;;;;39.22;27.33;;;5.90;85.70;;;;;;6151821;28;20529;-77
2021/03/10 05:23:35;;;;;;;39.33;25.27;;;5.90;85.70;;;;;;6151739;28;20142;-77
2021/03/10 05:26:37;;;;;;;37.05;23.30;;;5.90;85.70;;;;;;6151927;29;20062;-78
2021/03/10 05:29:39;;;;;;;39.63;24.50;;;5.90;85.70;;;;;;6151398;28;20378;-78
2021/03/10 05:32:41;;;;;;;40.78;24.75;;;5.90;85.60;;;;;;6151391;28;20552;-77
2021/03/10 05:35:42;;;;;;;36.70;24.23;;;5.90;85.40;;;;;;6154724;28;20047;-78
2021/03/10 05:38:44;;;;;;;38.67;25.17;;;5.90;85.30;;;;;;6176016;28;20082;-78
2021/03/10 05:41:45;;;;;;;37.58;25.15;;;5.90;85.40;;;;;;6175226;28;20046;-79
2021/03/10 05:44:49;;;;;;;42.40;28.10;;;5.90;85.40;;;;;;6163694;28;20043;-77
2021/03/10 05:47:52;;;;;;;39.05;25.70;;;5.90;85.50;;;;;;6151076;28;20101;-78
2021/03/10 05:50:53;;;;;;;39.00;24.40;;;5.90;85.60;;;;;;6151859;29;20501;-78
2021/03/10 05:53:58;;;;;;;40.40;25.85;;;5.90;85.60;;;;;;6151022;28;20046;-78
2021/03/10 05:57:03;;;;;;;36.50;23.45;;;5.90;85.50;;;;;;6151114;28;20501;-77
2021/03/10 06:00:09;;;;;;;38.85;24.45;;;5.90;85.60;;;;;;6157272;28;20397;-77
2021/03/10 06:03:13;;;;;;;38.20;26.27;;;5.90;85.60;;;;;;6176184;28;20050;-78
2021/03/10 06:06:14;;;;;;;40.22;24.33;;;5.90;85.60;;;;;;6186190;28;20069;-77
2021/03/10 06:09:17;;;;;;;42.65;25.15;;;5.90;85.50;;;;;;6199827;28;20647;-78
2021/03/10 06:12:18;;;;;;;38.72;23.63;;;5.90;85.90;;;;;;6204260;28;20133;-78
2021/03/10 06:15:20;;;;;;;37.72;25.30;;;6.00;86.00;;;;;;6203960;28;20503;-77
2021/03/10 06:18:24;;;;;;;36.63;25.00;;;6.00;85.50;;;;;;6204591;28;20062;-77
2021/03/10 06:21:25;;;;;;;38.42;27.55;;;6.00;85.30;;;;;;6203064;28;20129;-78
2021/03/10 06:24:33;;;;;;;43.38;26.15;;;6.10;85.40;;;;;;6203330;28;20129;-77
2021/03/10 06:27:34;;;;;;;36.92;24.67;;;6.10;85.10;;;;;;6203000;28;20420;-78
2021/03/10 06:30:39;;;;;;;37.65;24.35;;;6.00;85.00;;;;;;6203819;28;20463;-78
2021/03/10 06:33:42;;;;;;;37.13;24.98;;;6.10;85.00;;;;;;6203960;28;20627;-78
2021/03/10 06:36:48;;;;;;;41.65;25.50;;;6.10;84.80;;;;;;6203391;28;20468;-79
2021/03/10 06:39:49;;;;;;;44.38;27.80;;;6.10;84.80;;;;;;6202563;28;20594;-77
2021/03/10 06:42:54;;;;;;;41.00;25.75;;;6.10;84.70;;;;;;6202780;28;20506;-78
2021/03/10 06:45:55;;;;;;;37.05;25.92;;;6.20;84.70;;;;;;6203045;28;20168;-78
2021/03/10 06:49:00;;;;;;;43.15;26.40;;;6.20;84.60;;;;;;6203467;28;20133;-79
2021/03/10 06:52:08;;;;;;;36.83;25.60;;;6.20;84.40;;;;;;6202784;28;20070;-78
2021/03/10 06:55:11;;;;;;;39.03;23.98;;;6.30;84.30;;;;;;6202828;28;20061;-78
2021/03/10 06:58:22;;;;;;;39.88;24.80;;;6.30;84.10;;;;;;6203401;28;20085;-78
2021/03/10 07:01:27;;;;;;;40.70;29.15;;;6.30;83.90;;;;;;6202616;28;20046;-79
2021/03/10 07:04:30;;;;;;;42.35;25.30;;;6.30;83.80;;;;;;6173524;28;20504;-79
2021/03/10 07:07:31;;;;;;;42.92;25.75;;;6.30;83.60;;;;;;6156430;28;20055;-78
2021/03/10 07:10:33;;;;;;;36.45;23.65;;;6.30;83.40;;;;;;6178914;28;20571;-79
2021/03/10 07:13:34;;;;;;;38.67;22.77;;;6.30;83.40;;;;;;6178814;28;20130;-78
2021/03/10 07:16:36;;;;;;;37.63;24.55;;;6.30;83.20;;;;;;6178967;28;20508;-78
2021/03/10 07:19:38;;;;;;;31.27;21.88;;;6.40;83.10;;;;;;6178663;28;20448;-78
2021/03/10 07:22:46;;;;;;;37.38;24.52;;;6.40;83.20;;;;;;6178136;28;20456;-77
2021/03/10 07:25:48;;;;;;;;;;;6.50;82.90;;;;;;6178835;28;20185;-78
2021/03/10 07:28:54;;;;;;;35.42;23.30;;;6.50;83.00;;;;;;6178895;28;19976;-78
2021/03/10 07:31:59;;;;;;;37.22;24.90;;;6.50;82.50;;;;;;6178524;28;20043;-79
2021/03/10 07:35:05;;;;;;;39.95;25.30;;;6.50;82.50;;;;;;6179799;28;20047;-78
2021/03/10 07:38:06;;;;;;;38.15;25.58;;;6.60;82.40;;;;;;6181075;28;20055;-78
2021/03/10 07:41:09;;;;;;;41.53;24.15;;;6.60;82.00;;;;;;6180633;28;20160;-78
2021/03/10 07:44:19;;;;;;;36.83;23.73;;;6.70;81.90;;;;;;6179372;28;20067;-78
2021/03/10 07:47:20;;;;;;;43.05;27.02;;;6.70;81.60;;;;;;6179715;28;20055;-77
2021/03/10 07:50:23;;;;;;;44.58;28.23;;;6.80;81.10;;;;;;6179377;28;20416;-77
2021/03/10 07:53:35;;;;;;;35.40;25.48;;;6.80;81.00;;;;;;6178234;28;20416;-76
2021/03/10 07:56:36;;;;;;;41.40;26.25;;;6.90;81.00;;;;;;6177784;28;20046;-78
2021/03/10 07:59:39;;;;;;;48.30;26.58;;;6.90;80.50;;;;;;6178445;28;20493;-78
2021/03/10 08:02:42;;;;;;;39.88;26.60;;;6.90;80.50;;;;;;6179007;28;20149;-77
2021/03/10 08:05:44;;;;;;;43.05;27.75;;;7.00;80.20;;;;;;6180162;28;20054;-78
2021/03/10 08:08:45;;;;;;;44.25;27.75;;;7.20;80.00;;;;;;6180724;28;20047;-77
2021/03/10 08:11:49;;;;;;;35.90;24.08;;;7.40;79.60;;;;;;6177682;28;20461;-77
2021/03/10 08:14:50;;;;;;;38.25;26.45;;;7.50;78.80;;;;;;6176519;28;20047;-77
2021/03/10 08:18:02;;;;;;;45.35;27.55;;;7.70;78.30;;;;;;6175979;28;20058;-77
2021/03/10 08:21:10;;;;;;;42.25;27.33;;;7.90;77.50;;;;;;6175962;28;20055;-78
2021/03/10 08:24:11;;;;;;;41.33;26.10;;;8.10;76.20;;;;;;6178215;28;20125;-78
2021/03/10 08:27:13;;;;;;;37.05;25.50;;;8.20;75.80;;;;;;6179408;28;20069;-77
2021/03/10 08:30:15;;;;;;;43.33;26.63;;;8.40;74.70;;;;;;6181667;28;20047;-78
2021/03/10 08:33:17;;;;;;;39.35;27.35;;;8.50;74.00;;;;;;6178876;28;20051;-77
2021/03/10 08:36:31;;;;;;;46.58;29.83;;;8.60;73.90;;;;;;6175797;28;20133;-77
2021/03/10 08:39:34;;;;;;;42.60;28.90;;;8.80;73.10;;;;;;6176268;28;20495;-77
2021/03/10 08:42:35;;;;;;;43.42;27.90;;;8.90;72.60;;;;;;6176848;28;20141;-77
2021/03/10 08:45:38;;;;;;;44.97;28.83;;;8.90;71.70;;;;;;6175650;28;20053;-77
2021/03/10 08:48:39;;;;;;;47.50;31.23;;;8.80;72.30;;;;;;6176306;28;20058;-77
2021/03/10 08:51:41;;;;;;;42.30;27.70;;;8.90;72.10;;;;;;6177296;28;20070;-78
2021/03/10 08:54:54;;;;;;;40.22;27.38;;;9.00;72.30;;;;;;6178448;28;20067;-78
2021/03/10 08:57:59;;;;;;;44.00;29.25;;;9.10;71.50;;;;;;6176408;28;20166;-78
2021/03/10 09:01:00;;;;;;;42.05;27.30;;;9.10;71.30;;;;;;6177200;28;20082;-77
2021/03/10 09:04:02;;;;;;;44.83;31.83;;;9.40;70.90;;;;;;6176661;28;20133;-78
2021/03/10 09:07:04;;;;;;;47.95;28.23;;;9.60;69.90;;;;;;6178672;28;20082;-78
2021/03/10 09:10:10;;;;;;;39.42;27.60;;;9.80;69.50;;;;;;6177031;28;20054;-78
2021/03/10 09:13:12;;;;;;;49.47;29.30;;;10.10;68.40;;;;;;6177414;28;20077;-78
2021/03/10 09:16:14;;;;;;;41.92;29.02;;;10.20;67.90;;;;;;6177098;28;20046;-78
2021/03/10 09:19:15;;;;;;;38.72;27.13;;;10.40;67.70;;;;;;6177823;28;20054;-78
2021/03/10 09:22:20;;;;;;;43.70;30.75;;;10.60;67.00;;;;;;6177362;28;20078;-78
2021/03/10 09:25:22;;;;;;;43.72;29.63;;;10.70;66.60;;;;;;6176939;28;20134;-78
2021/03/10 09:28:32;;;;;;;37.30;26.77;;;11.00;65.80;;;;;;6177205;28;20074;-78
2021/03/10 09:31:33;;;;;;;48.67;28.90;;;11.10;64.70;;;;;;6177333;28;20058;-77
2021/03/10 09:34:35;;;;;;;47.53;29.45;;;11.30;63.90;;;;;;6177006;28;20046;-78
2021/03/10 09:37:44;;;;;;;41.70;27.40;;;11.30;63.60;;;;;;6175429;28;20051;-78
2021/03/10 09:40:46;;;;;;;36.35;28.70;;;11.20;63.70;;;;;;6176359;28;20070;-77
2021/03/10 09:43:48;;;;;;;43.15;30.23;;;11.10;63.80;;;;;;6175914;28;20523;-78
2021/03/10 09:46:49;;;;;;;36.75;25.88;;;11.10;64.10;;;;;;6180246;28;20055;-77
2021/03/10 09:49:53;;;;;;;39.38;29.58;;;11.00;63.90;;;;;;6181245;28;20070;-77
2021/03/10 09:52:56;;;;;;;42.78;29.27;;;11.10;63.30;;;;;;6181008;28;20046;-77
2021/03/10 09:56:05;;;;;;;40.10;28.48;;;11.10;64.00;;;;;;6179668;28;20050;-77
2021/03/10 09:59:11;;;;;;;39.25;27.77;;;11.40;62.90;;;;;;6180543;28;20046;-77
2021/03/10 10:02:14;;;;;;;37.10;26.48;;;11.50;63.20;;;;;;6179910;28;20047;-77
2021/03/10 10:05:24;;;;;;;42.95;28.13;;;11.70;62.40;;;;;;6179325;28;20572;-76
2021/03/10 10:08:26;;;;;;;37.78;29.10;;;11.80;62.30;;;;;;6180359;28;20085;-77
2021/03/10 10:11:28;;;;;;;39.42;29.40;;;11.90;61.60;;;;;;6179805;28;20528;-77
2021/03/10 10:14:29;;;;;;;44.15;30.30;;;12.00;61.20;;;;;;6180199;28;20046;-78
2021/03/10 10:17:31;;;;;;;37.60;27.10;;;11.90;61.40;;;;;;6179943;28;20517;-77
2021/03/10 10:20:34;;;;;;;37.47;26.92;;;12.00;61.30;;;;;;6180139;28;20042;-77
2021/03/10 10:23:36;;;;;;;38.90;27.52;;;12.00;60.90;;;;;;6180282;28;20051;-78
2021/03/10 10:26:38;;;;;;;41.38;28.33;;;12.10;60.90;;;;;;6180523;28;20150;-78
2021/03/10 10:29:39;;;;;;;32.20;24.63;;;12.30;60.30;;;;;;6180069;28;20050;-77
2021/03/10 10:32:40;;;;;;;40.25;27.88;;;12.40;60.20;;;;;;6179141;28;20488;-78
2021/03/10 10:35:42;;;;;;;39.15;30.10;;;12.40;60.00;;;;;;6179493;28;20074;-78
2021/03/10 10:38:44;;;;;;;44.08;30.38;;;12.40;59.30;;;;;;6180341;28;20089;-78
2021/03/10 10:41:45;;;;;;;36.50;28.30;;;12.40;59.00;;;;;;6179331;28;20047;-77
2021/03/10 10:44:47;;;;;;;38.15;27.60;;;12.20;59.40;;;;;;6179889;28;20058;-77
2021/03/10 10:47:48;;;;;;;36.58;26.92;;;12.10;59.20;;;;;;6167058;28;20108;-78
2021/03/10 10:50:50;;;;;;;37.55;27.98;;;12.10;59.70;;;;;;6164161;28;20509;-77
2021/03/10 10:53:52;;;;;;;33.78;23.42;;;12.10;59.90;;;;;;6170663;28;20157;-77
2021/03/10 10:56:54;;;;;;;33.10;22.38;;;12.20;58.60;;;;;;6165122;28;20054;-77
2021/03/10 10:59:55;;;;;;;32.40;25.75;;;12.10;58.40;;;;;;6166013;28;20473;-78
2021/03/10 11:02:56;;;;;;;34.35;24.58;;;12.10;58.10;;;;;;6166639;28;20110;-79
2021/03/10 11:05:58;;;;;;;37.75;25.67;;;12.20;58.20;;;;;;6161965;28;20130;-78
2021/03/10 11:09:00;;;;;;;34.25;23.52;;;12.20;58.00;;;;;;6161993;28;20058;-77
2021/03/10 11:12:01;;;;;;;38.70;24.13;;;12.40;57.70;;;;;;6175754;28;20046;-77
2021/03/10 11:15:04;;;;;;;32.20;23.63;;;12.50;57.50;;;;;;6176307;28;20074;-78
2021/03/10 11:18:06;;;;;;;30.33;21.55;;;12.70;56.30;;;;;;6196939;28;20038;-77
2021/03/10 11:21:07;;;;;;;30.77;21.65;;;12.80;55.80;;;;;;6168891;28;20050;-77
2021/03/10 11:24:10;;;;;;;34.17;22.02;;;12.90;55.10;;;;;;6163773;28;23005;-79
2021/03/10 11:27:13;;;;;;;27.02;20.38;;;13.00;54.20;;;;;;6167077;28;20061;-78
2021/03/10 11:30:15;;;;;;;30.58;20.70;;;13.00;54.60;;;;;;6172963;28;20046;-77
2021/03/10 11:33:17;;;;;;;42.47;23.90;;;13.00;53.70;;;;;;6160045;28;20431;-77
2021/03/10 11:36:18;;;;;;;30.13;22.17;;;12.90;54.00;;;;;;6162551;28;20117;-77
2021/03/10 11:39:20;;;;;;;25.98;19.48;;;12.90;54.40;;;;;;6167969;28;20058;-77
2021/03/10 11:42:22;;;;;;;29.70;21.13;;;13.00;53.10;;;;;;6158020;28;20043;-77
2021/03/10 11:45:23;;;;;;;30.58;22.17;;;13.00;53.20;;;;;;6161322;28;20511;-77
2021/03/10 11:48:24;;;;;;;27.30;19.98;;;13.00;52.70;;;;;;6165829;28;20047;-77
2021/03/10 11:51:26;;;;;;;24.20;18.95;;;13.00;52.40;;;;;;6164507;28;20143;-78
2021/03/10 11:54:28;;;;;;;25.85;19.58;;;13.00;52.70;;;;;;6159841;28;20130;-77
2021/03/10 11:57:29;;;;;;;25.20;19.40;;;13.20;53.00;;;;;;6159877;28;20596;-78
2021/03/10 12:00:31;;;;;;;23.05;17.75;;;13.20;52.00;;;;;;6170175;28;20098;-78
2021/03/10 12:03:33;;;;;;;23.42;15.82;;;13.20;50.50;;;;;;6159744;28;20413;-78
2021/03/10 12:06:35;;;;;;;18.52;14.60;;;13.20;50.30;;;;;;6170658;28;20101;-77
2021/03/10 12:09:37;;;;;;;25.73;18.02;;;13.20;49.60;;;;;;6160600;28;20558;-78
2021/03/10 12:12:39;;;;;;;26.85;17.25;;;13.40;50.00;;;;;;6179130;28;20042;-78
2021/03/10 12:15:41;;;;;;;18.38;12.43;;;13.40;49.80;;;;;;6174679;28;20513;-78
2021/03/10 12:18:42;;;;;;;18.50;13.90;;;13.60;48.50;;;;;;6171908;28;20051;-78
2021/03/10 12:21:43;;;;;;;15.13;12.50;;;13.80;47.90;;;;;;6171270;28;20123;-78
2021/03/10 12:24:46;;;;;;;16.02;12.70;;;14.00;46.70;;;;;;6166449;28;20457;-78
2021/03/10 12:27:48;;;;;;;12.35;9.68;;;14.10;46.50;;;;;;6160068;28;20066;-79
2021/03/10 12:30:49;;;;;;;16.25;10.45;;;14.30;44.80;;;;;;6162395;28;20051;-77
2021/03/10 12:33:50;;;;;;;20.67;13.20;;;14.50;43.50;;;;;;6165858;28;20043;-77
2021/03/10 12:36:52;;;;;;;15.75;12.50;;;14.60;43.90;;;;;;6165897;28;20075;-77
2021/03/10 12:39:54;;;;;;;15.88;13.70;;;14.60;45.00;;;;;;6158849;28;20091;-78
2021/03/10 12:42:56;;;;;;;14.20;10.75;;;14.60;45.10;;;;;;6170204;28;20058;-77
2021/03/10 12:45:57;;;;;;;11.65;9.25;;;14.50;43.80;;;;;;6153022;28;20187;-78
2021/03/10 12:48:58;;;;;;;12.20;9.75;;;14.20;43.30;;;;;;6167300;28;20047;-79
2021/03/10 12:51:59;;;;;;;12.75;8.93;;;14.00;44.30;;;;;;6166836;28;20047;-79
2021/03/10 12:55:02;;;;;;;13.35;9.68;;;13.90;43.50;;;;;;6170163;28;20051;-80
2021/03/10 12:58:03;;;;;;;16.92;11.15;;;13.80;43.90;;;;;;6163722;28;20644;-78
2021/03/10 13:01:05;;;;;;;17.30;12.60;;;13.80;44.40;;;;;;6158349;28;20055;-78
2021/03/10 13:04:06;;;;;;;17.45;11.75;;;13.70;44.60;;;;;;6161606;28;20528;-79
2021/03/10 13:07:07;;;;;;;12.10;10.13;;;13.50;44.50;;;;;;6166270;28;20134;-78
2021/03/10 13:10:11;;;;;;;12.48;9.73;;;13.40;44.70;;;;;;6166057;28;20086;-78
2021/03/10 13:13:12;;;;;;;9.85;7.85;;;13.40;44.60;;;;;;6153059;28;20051;-78
2021/03/10 13:16:14;;;;;;;11.88;9.10;;;13.50;43.80;;;;;;6167712;28;20057;-78
2021/03/10 13:19:15;;;;;;;16.83;11.05;;;13.30;44.20;;;;;;6161903;28;20182;-78
2021/03/10 13:22:17;;;;;;;15.38;10.70;;;13.30;45.00;;;;;;6164394;28;20057;-79
2021/03/10 13:25:19;;;;;;;16.10;9.85;;;13.30;44.90;;;;;;6162643;28;20133;-78
2021/03/10 13:28:20;;;;;;;15.40;11.43;;;13.30;44.70;;;;;;6163584;28;20584;-78
2021/03/10 13:31:22;;;;;;;19.70;15.48;;;13.30;45.60;;;;;;6161283;28;20106;-78
2021/03/10 13:34:23;;;;;;;14.95;11.02;;;13.20;45.90;;;;;;6170505;28;20465;-80
2021/03/10 13:37:24;;;;;;;16.00;10.25;;;13.30;45.40;;;;;;6167321;28;20065;-78
2021/03/10 13:40:27;;;;;;;14.80;12.00;;;13.30;44.80;;;;;;6166190;28;20070;-79
2021/03/10 13:43:29;;;;;;;13.00;8.68;;;13.40;45.20;;;;;;6171100;28;20047;-80
2021/03/10 13:46:30;;;;;;;12.48;10.52;;;13.50;44.90;;;;;;6165897;28;20134;-78
2021/03/10 13:49:32;;;;;;;14.88;9.73;;;13.40;44.30;;;;;;6160783;28;20532;-79
2021/03/10 13:52:33;;;;;;;16.85;10.27;;;13.40;44.30;;;;;;6160336;28;20533;-79
2021/03/10 13:55:35;;;;;;;12.15;9.40;;;13.20;45.40;;;;;;6156624;28;20100;-78
2021/03/10 13:58:36;;;;;;;15.77;10.10;;;13.10;45.40;;;;;;6166639;28;20138;-80
2021/03/10 14:01:38;;;;;;;13.35;10.70;;;13.10;45.40;;;;;;6163436;28;20074;-78
2021/03/10 14:04:39;;;;;;;14.48;9.95;;;12.80;45.50;;;;;;6168742;28;20054;-79
2021/03/10 14:07:40;;;;;;;14.95;11.38;;;12.70;45.90;;;;;;6170109;28;20054;-80
2021/03/10 14:10:42;;;;;;;15.18;11.60;;;12.80;45.90;;;;;;6207214;23;20042;-80
2021/03/10 14:13:44;;;;;;;13.82;10.07;;;12.90;45.70;;;;;;6199337;28;20112;-80
2021/03/10 14:16:45;;;;;;;14.60;13.05;;;12.80;45.60;;;;;;6197630;28;20415;-80
2021/03/10 14:19:47;;;;;;;13.02;9.25;;;12.80;46.00;;;;;;6194280;28;20046;-80
2021/03/10 14:22:49;;;;;;;12.02;8.63;;;12.80;45.50;;;;;;6197452;28;20083;-80
2021/03/10 14:25:51;;;;;;;16.27;9.77;;;12.70;46.30;;;;;;6178793;28;20538;-80
2021/03/10 14:28:54;;;;;;;12.23;9.13;;;12.60;45.60;;;;;;6186507;28;20050;-78
2021/03/10 14:31:55;;;;;;;13.68;8.70;;;12.60;46.40;;;;;;6222179;28;20030;-78
2021/03/10 14:34:57;;;;;;;12.85;9.15;;;12.70;46.30;;;;;;6213991;28;20108;-80
2021/03/10 14:37:58;;;;;;;11.80;9.00;;;12.60;46.00;;;;;;6202596;28;20066;-80
2021/03/10 14:41:00;;;;;;;10.95;8.52;;;12.50;46.10;;;;;;6192191;28;20121;-80
2021/03/10 14:44:02;;;;;;;11.07;8.93;;;12.40;46.30;;;;;;6188637;28;20411;-79
2021/03/10 14:47:04;;;;;;;13.85;8.93;;;12.40;46.80;;;;;;6208152;28;20061;-79
2021/03/10 14:50:07;;;;;;;11.77;9.20;;;12.40;46.70;;;;;;6212740;28;20057;-78
2021/03/10 14:53:08;;;;;;;12.27;9.18;;;12.50;46.30;;;;;;6212008;28;20407;-78
2021/03/10 14:56:10;;;;;;;12.00;9.55;;;12.40;46.60;;;;;;6192082;28;20798;-80
2021/03/10 14:59:12;;;;;;;13.30;8.75;;;12.40;46.00;;;;;;6176104;28;20110;-80
2021/03/10 15:02:13;;;;;;;10.15;7.45;;;12.50;46.50;;;;;;6177766;28;20527;-80
2021/03/10 15:05:14;;;;;;;11.68;8.20;;;12.60;46.80;;;;;;6177619;28;20448;-79
2021/03/10 15:08:16;;;;;;;11.52;8.10;;;12.60;46.10;;;;;;6180273;28;20073;-80
2021/03/10 15:11:18;;;;;;;11.02;7.28;;;12.60;45.60;;;;;;6177638;28;20051;-80
2021/03/10 15:14:19;;;;;;;15.65;8.38;;;12.50;45.80;;;;;;6173777;28;20086;-79
2021/03/10 15:17:21;;;;;;;11.73;8.32;;;12.30;46.10;;;;;;6171601;28;20055;-79
2021/03/10 15:20:23;;;;;;;10.20;7.50;;;12.20;46.40;;;;;;6180648;28;20038;-79
2021/03/10 15:23:24;;;;;;;12.18;8.88;;;12.20;46.50;;;;;;6171573;28;20458;-79
2021/03/10 15:26:26;;;;;;;11.43;8.05;;;12.10;46.80;;;;;;6174361;28;20153;-79
2021/03/10 15:29:28;;;;;;;12.07;8.50;;;12.00;46.80;;;;;;6173874;28;20051;-79
2021/03/10 15:32:29;;;;;;;13.25;8.88;;;11.90;47.50;;;;;;6173252;28;20137;-80